createdAt,value
2023-03-10T00:04:02.325Z,96552.69
2023-03-10T00:09:06.407Z,96547.34
2023-03-10T00:14:11.850Z,96539.22
2023-03-10T00:19:16.374Z,96541.72
2023-03-10T00:24:20.864Z,96530.66
2023-03-10T00:29:26.333Z,96525.13
2023-03-10T00:34:31.146Z,96518.47
2023-03-10T00:39:35.045Z,96522.91
2023-03-10T00:44:42.502Z,96519.09
2023-03-10T00:49:46.393Z,96503.91
2023-03-10T00:54:51.625Z,96499.88
2023-03-10T00:59:56.876Z,96496.78
2023-03-10T01:05:01.052Z,96484.19
2023-03-10T01:10:05.765Z,96480.44
2023-03-10T01:15:13.134Z,96481.47
2023-03-10T01:20:18.969Z,96471.38
2023-03-10T01:25:23.084Z,96467.50
2023-03-10T01:30:28.697Z,96466.25
2023-03-10T01:35:32.878Z,96466.59
2023-03-10T01:40:37.660Z,96456.13
2023-03-10T01:46:30.286Z,96459.53
2023-03-10T01:51:40.748Z,96464.38
2023-03-10T01:56:45.291Z,96446.91
2023-03-10T02:01:51.811Z,96444.78
2023-03-10T02:06:58.950Z,96434.84
2023-03-10T02:12:04.683Z,96431.25
2023-03-10T02:17:13.936Z,96433.06
2023-03-10T02:22:19.687Z,96426.91
2023-03-10T02:27:27.393Z,96426.53
2023-03-10T02:32:34.417Z,96421.34
2023-03-10T02:37:38.808Z,96418.94
2023-03-10T02:42:44.377Z,96413.34
2023-03-10T02:47:48.432Z,96423.47
2023-03-10T02:52:57.017Z,96417.44
2023-03-10T02:58:03.801Z,96419.03
2023-03-10T03:03:08.387Z,96412.81
2023-03-10T03:08:12.716Z,96404.81
2023-03-10T03:13:18.187Z,96399.63
2023-03-10T03:18:22.561Z,96391.88
2023-03-10T03:23:27.168Z,96397.47
2023-03-10T03:28:32.799Z,96398.47
2023-03-10T03:33:37.693Z,96394.06
2023-03-10T03:38:41.763Z,96396.91
2023-03-10T03:43:47.271Z,96385.56
2023-03-10T03:48:51.657Z,96383.72
2023-03-10T03:53:55.963Z,96361.84
2023-03-10T03:59:01.946Z,96350.09
2023-03-10T04:04:06.672Z,96344.72
2023-03-10T04:09:11.304Z,96344.94
2023-03-10T04:14:17.651Z,96334.19
2023-03-10T04:19:21.866Z,96319.88
2023-03-10T04:24:29.890Z,96311.31
2023-03-10T04:29:35.943Z,96314.09
2023-03-10T04:34:40.664Z,96295.97
2023-03-10T04:39:45.089Z,96287.56
2023-03-10T04:44:52.088Z,96277.41
2023-03-10T04:49:56.492Z,96280.19
2023-03-10T04:55:00.618Z,96265.44
2023-03-10T05:00:08.224Z,96267.81
2023-03-10T05:05:13.214Z,96259.66
2023-03-10T05:10:21.219Z,96263.63
2023-03-10T05:15:26.927Z,96264.03
2023-03-10T05:20:31.090Z,96248.50
2023-03-10T05:25:37.380Z,96239.31
2023-03-10T05:30:42.918Z,96231.94
2023-03-10T05:35:47.338Z,96233.94
2023-03-10T05:40:51.527Z,96226.38
2023-03-10T05:45:59.519Z,96216.03
2023-03-10T05:51:09.040Z,96208.91
2023-03-10T05:56:16.188Z,96216.47
2023-03-10T06:01:22.890Z,96218.69
2023-03-10T06:06:26.951Z,96212.13
2023-03-10T06:11:31.108Z,96205.56
2023-03-10T06:16:36.429Z,96203.38
2023-03-10T06:21:40.491Z,96186.59
2023-03-10T06:26:44.981Z,96169.81
2023-03-10T06:31:50.428Z,96181.34
2023-03-10T06:36:56.006Z,96188.13
2023-03-10T06:42:01.493Z,96188.06
2023-03-10T06:47:07.342Z,96193.59
2023-03-10T06:52:11.234Z,96191.75
2023-03-10T06:57:15.105Z,96199.91
2023-03-10T07:02:20.808Z,96185.44
2023-03-10T07:07:24.941Z,96192.59
2023-03-10T07:12:28.888Z,96186.06
2023-03-10T07:17:34.678Z,96188.78
2023-03-10T07:22:38.869Z,96183.22
2023-03-10T07:27:43.573Z,96189.66
2023-03-10T07:32:48.867Z,96175.00
2023-03-10T07:37:52.972Z,96181.00
2023-03-10T07:42:56.887Z,96162.50
2023-03-10T07:48:04.852Z,96170.72
2023-03-10T07:53:08.720Z,96153.41
2023-03-10T07:58:12.620Z,96141.50
2023-03-10T08:03:18.241Z,96148.22
2023-03-10T08:08:23.317Z,96139.38
2023-03-10T08:13:27.471Z,96129.41
2023-03-10T08:18:32.866Z,96134.34
2023-03-10T08:23:37.981Z,96138.34
2023-03-10T08:28:42.924Z,96131.44
2023-03-10T08:33:49.120Z,96125.53
2023-03-10T08:38:54.469Z,96128.00
2023-03-10T08:43:59.890Z,96120.47
2023-03-10T08:49:05.143Z,96124.28
2023-03-10T08:54:10.116Z,96141.78
2023-03-10T08:59:14.440Z,96133.84
2023-03-10T09:04:20.314Z,96137.72
2023-03-10T09:09:24.198Z,96147.19
2023-03-10T09:14:28.349Z,96141.41
2023-03-10T09:19:33.920Z,96143.19
2023-03-10T09:24:37.998Z,96154.09
2023-03-10T09:29:43.590Z,96147.16
2023-03-10T09:34:49.421Z,96145.03
2023-03-10T09:39:53.616Z,96147.03
2023-03-10T09:45:05.196Z,96134.31
2023-03-10T09:50:23.895Z,96142.25
2023-03-10T09:55:30.334Z,96134.78
2023-03-10T10:00:39.685Z,96125.50
2023-03-10T10:05:46.795Z,96142.19
2023-03-10T10:10:53.802Z,96132.31
2023-03-10T10:16:21.443Z,96135.13
2023-03-10T10:21:41.719Z,96128.31
2023-03-10T10:26:46.306Z,96120.22
2023-03-10T10:32:08.889Z,96128.59
2023-03-10T10:37:28.413Z,96111.28
2023-03-10T10:42:35.235Z,96112.09
2023-03-10T10:47:49.220Z,96118.53
2023-03-10T10:53:16.971Z,96099.03
2023-03-10T10:58:28.447Z,96090.53
2023-03-10T11:03:34.949Z,96096.72
2023-03-10T11:08:42.973Z,96077.09
2023-03-10T11:14:01.448Z,96078.38
2023-03-10T11:19:09.874Z,96057.63
2023-03-10T11:24:21.650Z,96055.47
2023-03-10T11:29:35.165Z,96052.75
2023-03-10T11:34:43.134Z,96040.53
2023-03-10T11:39:54.224Z,96036.78
2023-03-10T11:45:05.434Z,96039.03
2023-03-10T11:50:18.206Z,96034.97
2023-03-10T11:55:23.997Z,96032.34
2023-03-10T12:00:31.620Z,96034.78
2023-03-10T12:05:43.793Z,96027.94
2023-03-10T12:10:50.693Z,96020.97
2023-03-10T12:15:59.782Z,96017.66
2023-03-10T12:21:15.477Z,96018.47
2023-03-10T12:26:55.449Z,96013.78
2023-03-10T12:32:01.358Z,96003.78
2023-03-10T12:37:08.926Z,96001.41
2023-03-10T12:42:30.700Z,95992.44
2023-03-10T12:47:48.139Z,96006.16
2023-03-10T12:53:00.216Z,96011.16
2023-03-10T12:58:09.780Z,96010.91
2023-03-10T13:03:25.782Z,96019.03
2023-03-10T13:08:35.935Z,96007.19
2023-03-10T13:13:41.056Z,96013.22
2023-03-10T13:18:49.709Z,96006.91
2023-03-10T13:23:53.633Z,96003.00
2023-03-10T13:28:59.377Z,95992.22
2023-03-10T13:34:15.353Z,96001.16
2023-03-10T13:39:24.647Z,95987.19
2023-03-10T13:44:33.594Z,95996.16
2023-03-10T13:49:39.321Z,95998.78
2023-03-10T13:54:44.018Z,95995.34
2023-03-10T13:59:48.598Z,95992.47
2023-03-10T14:04:55.719Z,95998.50
2023-03-10T14:10:15.090Z,95991.66
2023-03-10T14:15:24.576Z,95986.34
2023-03-10T14:20:31.346Z,95981.00
2023-03-10T14:25:35.377Z,95971.06
2023-03-10T14:30:40.327Z,95958.91
2023-03-10T14:35:46.622Z,95948.97
2023-03-10T14:40:53.227Z,95943.63
2023-03-10T14:45:58.655Z,95936.50
2023-03-10T14:51:06.299Z,95921.13
2023-03-10T14:56:14.954Z,95918.75
2023-03-10T15:01:20.497Z,95922.09
2023-03-10T15:06:25.950Z,95917.34
2023-03-10T15:11:36.885Z,95909.75
2023-03-10T15:16:41.356Z,95903.38
2023-03-10T15:21:46.909Z,95902.31
2023-03-10T15:26:51.585Z,95894.97
2023-03-10T15:31:55.410Z,95900.16
2023-03-10T15:37:01.133Z,95891.91
2023-03-10T15:42:05.236Z,95881.88
2023-03-10T15:47:09.106Z,95878.38
2023-03-10T15:52:14.898Z,95878.50
2023-03-10T15:57:18.788Z,95865.56
2023-03-10T16:02:23.007Z,95863.09
2023-03-10T16:07:28.280Z,95848.91
2023-03-10T16:12:32.220Z,95849.59
2023-03-10T16:17:36.509Z,95851.28
2023-03-10T16:22:43.248Z,95843.28
2023-03-10T16:27:48.074Z,95829.75
2023-03-10T16:32:52.065Z,95833.06
2023-03-10T16:37:57.301Z,95837.75
2023-03-10T16:43:01.466Z,95836.47
2023-03-10T16:48:05.873Z,95830.38
2023-03-10T16:53:11.125Z,95840.19
2023-03-10T16:58:14.976Z,95842.13
2023-03-10T17:03:19.027Z,95836.56
2023-03-10T17:08:24.505Z,95843.03
2023-03-10T17:13:29.071Z,95849.25
2023-03-10T17:18:32.964Z,95849.19
2023-03-10T17:23:38.365Z,95849.09
2023-03-10T17:28:43.584Z,95854.97
2023-03-10T17:33:47.847Z,95857.94
2023-03-10T17:38:54.942Z,95861.56
2023-03-10T17:43:59.614Z,95864.94
2023-03-10T17:49:03.523Z,95859.22
2023-03-10T17:54:08.923Z,95843.69
2023-03-10T17:59:14.264Z,95846.31
2023-03-10T18:04:18.353Z,95836.34
2023-03-10T18:09:23.749Z,95828.41
2023-03-10T18:14:27.985Z,95831.13
2023-03-10T18:19:32.152Z,95834.84
2023-03-10T18:24:39.146Z,95826.38
2023-03-10T18:29:43.416Z,95824.91
2023-03-10T18:34:47.418Z,95826.81
2023-03-10T18:39:53.245Z,95816.88
2023-03-10T18:44:57.574Z,95810.63
2023-03-10T18:50:01.700Z,95805.41
2023-03-10T18:55:07.885Z,95799.56
2023-03-10T19:00:14.824Z,95801.69
2023-03-10T19:05:19.256Z,95802.03
2023-03-10T19:10:24.686Z,95803.47
2023-03-10T19:15:28.559Z,95810.94
2023-03-10T19:20:32.480Z,95804.28
2023-03-10T19:25:37.786Z,95806.41
2023-03-10T19:30:43.912Z,95800.88
2023-03-10T19:35:48.036Z,95801.78
2023-03-10T19:40:53.785Z,95796.31
2023-03-10T19:46:02.211Z,95789.38
2023-03-10T19:51:07.307Z,95787.91
2023-03-10T19:56:12.590Z,95792.47
2023-03-10T20:01:17.850Z,95789.94
2023-03-10T20:06:22.520Z,95783.25
2023-03-10T20:11:27.774Z,95780.19
2023-03-10T20:16:32.792Z,95784.94
2023-03-10T20:21:36.980Z,95796.94
2023-03-10T20:26:42.184Z,95794.91
2023-03-10T20:31:46.424Z,95784.94
2023-03-10T20:36:50.352Z,95790.06
2023-03-10T20:41:55.792Z,95783.59
2023-03-10T20:47:00.394Z,95784.41
2023-03-10T20:52:04.964Z,95778.81
2023-03-10T20:57:10.207Z,95773.06
2023-03-10T21:02:15.893Z,95764.38
2023-03-10T21:07:20.243Z,95757.44
2023-03-10T21:12:25.488Z,95751.00
2023-03-10T21:17:29.368Z,95755.94
2023-03-10T21:22:35.339Z,95750.16
2023-03-10T21:27:40.644Z,95747.91
2023-03-10T21:32:44.845Z,95738.53
2023-03-10T21:37:49.480Z,95737.72
2023-03-10T21:42:54.697Z,95731.06
2023-03-10T21:47:58.781Z,95716.16
2023-03-10T21:53:02.732Z,95709.09
2023-03-10T21:58:08.228Z,95706.84
2023-03-10T22:03:12.098Z,95713.59
2023-03-10T22:08:16.000Z,95714.06
2023-03-10T22:13:21.443Z,95701.63
2023-03-10T22:18:25.530Z,95699.34
2023-03-10T22:23:29.686Z,95696.75
2023-03-10T22:28:35.017Z,95686.00
2023-03-10T22:33:39.179Z,95681.13
2023-03-10T22:38:43.039Z,95672.97
2023-03-10T22:43:48.464Z,95674.19
2023-03-10T22:48:52.913Z,95671.34
2023-03-10T22:53:57.110Z,95668.47
2023-03-10T22:59:04.113Z,95664.28
2023-03-10T23:04:08.098Z,95671.16
2023-03-10T23:09:12.204Z,95669.00
2023-03-10T23:14:17.814Z,95670.06
2023-03-10T23:19:22.080Z,95668.28
2023-03-10T23:24:26.193Z,95659.13
2023-03-10T23:29:31.423Z,95652.19
2023-03-10T23:34:35.438Z,95660.94
2023-03-10T23:39:39.528Z,95655.31
2023-03-10T23:44:45.295Z,95651.19
2023-03-10T23:49:49.718Z,95636.69
2023-03-10T23:54:53.995Z,95640.22
2023-03-10T23:59:59.616Z,95638.31
